Time;durP1;ratioP1;P1;durP2;ratioP2;P2;SDS_P1;SDS_P2;PMS_P1;PMS_P2;Temp;Humidity;BMP_temperature;BMP_pressure;BME280_temperature;BME280_humidity;BME280_pressure;Samples;Min_cycle;Max_cycle;Signal;HPM_P1;HPM_P2
2022/03/15 00:00:49;;;;;;;;;;;;;;;16.55;56.65;100322.81;2082620;28;19916;-48
2022/03/15 00:01:49;;;;;;;;;;;;;;;16.56;56.67;100334.56;2096994;28;19955;-47
2022/03/15 00:02:50;;;;;;;;;;;;;;;16.57;56.76;100326.28;2093633;28;20211;-47
2022/03/15 00:03:50;;;;;;;;;;;;;;;16.57;56.75;100331.72;2093398;28;19920;-46
2022/03/15 00:04:51;;;;;;;;;;;;;;;16.58;56.83;100332.56;2094515;28;20225;-46
2022/03/15 00:05:51;;;;;;;;;;;;;;;16.58;56.77;100330.72;2096926;28;20195;-46
2022/03/15 00:06:51;;;;;;;;;;;;;;;16.58;56.73;100332.56;2093056;28;19915;-47
2022/03/15 00:07:52;;;;;;;;;;;;;;;16.59;56.64;100318.00;2087791;28;19924;-46
2022/03/15 00:08:52;;;;;;;;;;;;;;;16.59;56.71;100316.13;2088014;28;19920;-46
2022/03/15 00:09:53;;;;;;;;;;;;;;;16.58;56.66;100306.22;2085373;28;20099;-47
2022/03/15 00:11:02;;;;;;;;;;;;;;;16.58;56.83;100311.66;2088766;28;19923;-46
2022/03/15 00:12:03;;;;;;;;;;;;;;;16.59;56.70;100313.41;2090470;28;19924;-47
2022/03/15 00:13:06;;;;;;;;;;;;;;;16.60;56.75;100298.78;2087074;28;19970;-45
2022/03/15 00:14:08;;;;;;;;;;;;;;;16.60;56.88;100319.72;2090152;28;19916;-45
2022/03/15 00:15:09;;;;;;;;;;;;;;;16.60;56.78;100312.41;2098092;28;19920;-46
2022/03/15 00:16:10;;;;;;;;;;;;;;;16.60;56.88;100326.00;2090658;28;20347;-45
2022/03/15 00:17:12;;;;;;;;;;;;;;;16.60;56.73;100320.56;2096909;28;20015;-47
2022/03/15 00:18:12;;;;;;;;;;;;;;;16.60;56.67;100311.53;2087506;28;19928;-48
2022/03/15 00:19:13;;;;;;;;;;;;;;;16.61;56.78;100316.88;2084098;28;19971;-46
2022/03/15 00:20:14;;;;;;;;;;;;;;;16.61;56.69;100314.16;2084151;28;19924;-45
2022/03/15 00:21:17;;;;;;;;;;;;;;;16.61;56.65;100311.44;2089184;28;20330;-46
2022/03/15 00:22:18;;;;;;;;;;;;;;;16.62;56.63;100315.00;2088856;28;19920;-46
2022/03/15 00:23:18;;;;;;;;;;;;;;;16.61;56.69;100311.44;2091516;28;20374;-46
2022/03/15 00:24:19;;;;;;;;;;;;;;;16.63;56.65;100309.41;2088237;28;19955;-46
2022/03/15 00:25:19;;;;;;;;;;;;;;;16.64;56.88;100313.03;2100047;28;19947;-45
2022/03/15 00:26:20;;;;;;;;;;;;;;;16.64;56.88;100299.41;2093751;28;19973;-46
2022/03/15 00:27:21;;;;;;;;;;;;;;;16.63;56.68;100314.00;2094955;28;19972;-47
2022/03/15 00:28:24;;;;;;;;;;;;;;;16.62;56.67;100306.84;2099926;28;19927;-46
2022/03/15 00:29:24;;;;;;;;;;;;;;;16.62;56.42;100307.69;2086751;28;19966;-47
2022/03/15 00:30:25;;;;;;;;;;;;;;;16.63;56.63;100303.97;2098907;28;19915;-46
2022/03/15 00:31:25;;;;;;;;;;;;;;;16.63;56.54;100309.41;2086153;28;19924;-46
2022/03/15 00:32:26;;;;;;;;;;;;;;;16.65;56.60;100307.44;2090486;28;20207;-47
2022/03/15 00:33:27;;;;;;;;;;;;;;;16.64;56.53;100315.75;2101232;28;19959;-46
2022/03/15 00:34:27;;;;;;;;;;;;;;;16.64;56.57;100311.16;2089728;28;19926;-46
2022/03/15 00:35:27;;;;;;;;;;;;;;;16.63;56.54;100301.25;2089351;28;19920;-47
2022/03/15 00:36:29;;;;;;;;;;;;;;;16.65;56.77;100301.13;2076470;28;19956;-48
2022/03/15 00:37:29;;;;;;;;;;;;;;;16.65;56.69;100303.84;2092353;28;19990;-46
2022/03/15 00:38:30;;;;;;;;;;;;;;;16.62;56.53;100301.41;2094056;28;19920;-46
2022/03/15 00:39:30;;;;;;;;;;;;;;;16.62;56.69;100302.25;2081859;28;19928;-46
2022/03/15 00:40:30;;;;;;;;;;;;;;;16.61;56.53;100294.22;2081993;28;19937;-46
2022/03/15 00:41:31;;;;;;;;;;;;;;;16.61;56.55;100284.22;2090802;28;19942;-46
2022/03/15 00:42:31;;;;;;;;;;;;;;;16.61;56.47;100300.53;2096260;28;20421;-49
2022/03/15 00:43:32;;;;;;;;;;;;;;;16.63;56.71;100292.22;2093798;28;19951;-45
2022/03/15 00:44:32;;;;;;;;;;;;;;;16.60;56.58;100290.63;2090326;28;19942;-47
2022/03/15 00:45:33;;;;;;;;;;;;;;;16.60;56.64;100293.34;2099210;28;19916;-45
2022/03/15 00:46:33;;;;;;;;;;;;;;;16.60;56.65;100278.88;2091624;28;19923;-46
2022/03/15 00:47:34;;;;;;;;;;;;;;;16.60;56.53;100277.03;2092851;28;19921;-45
2022/03/15 00:48:34;;;;;;;;;;;;;;;16.59;56.85;100286.19;2077633;28;19913;-46
2022/03/15 00:49:35;;;;;;;;;;;;;;;16.60;56.52;100282.47;2079040;28;19964;-45
2022/03/15 00:50:41;;;;;;;;;;;;;;;16.59;56.82;100275.31;2096346;28;20489;-46
2022/03/15 00:51:42;;;;;;;;;;;;;;;16.60;56.78;100270.72;2089778;28;19923;-46
2022/03/15 00:52:42;;;;;;;;;;;;;;;16.60;56.82;100293.34;2088621;28;19909;-46
2022/03/15 00:53:42;;;;;;;;;;;;;;;16.59;56.74;100294.34;2085230;28;19956;-47
2022/03/15 00:54:43;;;;;;;;;;;;;;;16.60;56.53;100292.50;2093995;28;20326;-45
2022/03/15 00:55:43;;;;;;;;;;;;;;;16.60;56.62;100281.59;2096547;28;19916;-46
2022/03/15 00:56:44;;;;;;;;;;;;;;;16.60;56.87;100298.78;2087872;28;19916;-45
2022/03/15 00:57:44;;;;;;;;;;;;;;;16.59;56.75;100280.75;2092038;28;19969;-46
2022/03/15 00:58:44;;;;;;;;;;;;;;;16.60;56.80;100281.59;2085931;28;20007;-45
2022/03/15 00:59:45;;;;;;;;;;;;;;;16.60;56.69;100273.44;2094243;28;19913;-46
2022/03/15 01:00:48;;;;;;;;;;;;;;;16.60;56.65;100282.47;2098132;28;19920;-46
2022/03/15 01:01:48;;;;;;;;;;;;;;;16.60;56.71;100287.06;2092450;28;19959;-47
2022/03/15 01:02:49;;;;;;;;;;;;;;;16.60;56.96;100279.75;2088510;28;19920;-47
2022/03/15 01:03:49;;;;;;;;;;;;;;;16.60;56.62;100277.03;2098081;28;19923;-46
2022/03/15 01:04:50;;;;;;;;;;;;;;;16.62;56.99;100279.63;2092726;28;19922;-46
2022/03/15 01:05:50;;;;;;;;;;;;;;;16.61;56.61;100273.31;2091245;28;20021;-46
2022/03/15 01:06:51;;;;;;;;;;;;;;;16.61;56.55;100276.03;2086478;28;19937;-45
2022/03/15 01:07:51;;;;;;;;;;;;;;;16.62;56.70;100274.19;2085457;28;19916;-46
2022/03/15 01:08:51;;;;;;;;;;;;;;;16.62;56.67;100268.75;2093783;28;19919;-46
2022/03/15 01:09:52;;;;;;;;;;;;;;;16.63;56.81;100270.47;2091743;28;20588;-46
2022/03/15 01:10:52;;;;;;;;;;;;;;;16.62;56.77;100264.16;2098815;28;20173;-47
2022/03/15 01:11:52;;;;;;;;;;;;;;;16.61;56.61;100265.16;2092771;28;19928;-46
2022/03/15 01:12:53;;;;;;;;;;;;;;;16.62;56.55;100260.56;2089813;28;20393;-47
2022/03/15 01:13:53;;;;;;;;;;;;;;;16.61;56.82;100257.00;2095340;28;20323;-45
2022/03/15 01:14:53;;;;;;;;;;;;;;;16.61;56.65;100259.72;2086921;28;19919;-45
2022/03/15 01:15:53;;;;;;;;;;;;;;;16.63;56.67;100270.47;2093259;28;20282;-46
2022/03/15 01:16:55;;;;;;;;;;;;;;;16.63;56.51;100248.69;2089525;28;19920;-46
2022/03/15 01:17:56;;;;;;;;;;;;;;;16.63;56.51;100265.88;2086717;28;20400;-45
2022/03/15 01:18:56;;;;;;;;;;;;;;;16.62;56.83;100253.28;2085788;28;19973;-46
2022/03/15 01:19:56;;;;;;;;;;;;;;;16.63;56.62;100260.44;2087803;28;19921;-46
2022/03/15 01:20:57;;;;;;;;;;;;;;;16.62;56.68;100253.28;2094435;28;20352;-47
2022/03/15 01:21:58;;;;;;;;;;;;;;;16.64;56.66;100254.00;2094300;28;19967;-45
2022/03/15 01:22:58;;;;;;;;;;;;;;;16.64;56.76;100259.44;2093677;28;20133;-46
2022/03/15 01:23:58;;;;;;;;;;;;;;;16.63;56.68;100260.44;2094001;28;19919;-46
2022/03/15 01:24:59;;;;;;;;;;;;;;;16.65;56.69;100273.91;2089187;28;19913;-47
2022/03/15 01:26:00;;;;;;;;;;;;;;;16.65;56.71;100274.78;2094670;28;20514;-46
2022/03/15 01:27:00;;;;;;;;;;;;;;;16.64;56.69;100277.66;2094198;28;19923;-46
2022/03/15 01:28:00;;;;;;;;;;;;;;;16.64;56.61;100273.06;2088399;28;20306;-46
2022/03/15 01:29:01;;;;;;;;;;;;;;;16.64;56.81;100280.38;2091425;28;20327;-46
2022/03/15 01:30:02;;;;;;;;;;;;;;;16.65;56.69;100273.91;2091994;28;19924;-46
2022/03/15 01:31:02;;;;;;;;;;;;;;;16.64;56.69;100278.50;2090528;28;20190;-46
2022/03/15 01:32:03;;;;;;;;;;;;;;;16.64;56.57;100267.63;2092159;28;19924;-46
2022/03/15 01:33:03;;;;;;;;;;;;;;;16.65;56.86;100274.78;2090725;28;19924;-45
2022/03/15 01:34:04;;;;;;;;;;;;;;;16.66;56.92;100276.53;2094526;28;19952;-46
2022/03/15 01:35:04;;;;;;;;;;;;;;;16.64;56.74;100262.16;2093112;28;19920;-45
2022/03/15 01:36:05;;;;;;;;;;;;;;;16.63;56.87;100265.88;2089417;28;19920;-45
2022/03/15 01:37:05;;;;;;;;;;;;;;;16.64;56.80;100273.06;2093029;28;19943;-46
2022/03/15 01:38:06;;;;;;;;;;;;;;;16.63;56.70;100274.03;2088299;28;19921;-46
2022/03/15 01:39:06;;;;;;;;;;;;;;;16.64;56.60;100273.06;2093699;28;20291;-45
2022/03/15 01:40:07;;;;;;;;;;;;;;;16.64;56.71;100273.06;2092801;28;20514;-46
2022/03/15 01:41:07;;;;;;;;;;;;;;;16.64;56.60;100264.03;2080219;28;19921;-46
2022/03/15 01:42:07;;;;;;;;;;;;;;;16.64;56.63;100267.63;2079261;28;19925;-46
2022/03/15 01:43:08;;;;;;;;;;;;;;;16.64;56.78;100266.75;2088102;28;19942;-48
2022/03/15 01:44:34;;;;;;;;;;;;;;;16.63;56.62;100268.59;2078066;28;19920;-46
2022/03/15 01:45:36;;;;;;;;;;;;;;;16.64;56.82;100267.63;2083006;28;20080;-47
2022/03/15 01:46:36;;;;;;;;;;;;;;;16.63;56.85;100262.28;2092440;28;19935;-47
2022/03/15 01:47:36;;;;;;;;;;;;;;;16.63;56.53;100271.31;2094055;28;19919;-48
2022/03/15 01:48:37;;;;;;;;;;;;;;;16.63;56.74;100259.56;2084508;28;19916;-46
2022/03/15 01:49:37;;;;;;;;;;;;;;;16.63;56.63;100271.31;2081831;28;20007;-47
2022/03/15 01:50:38;;;;;;;;;;;;;;;16.62;56.83;100250.53;2092339;28;19959;-46
2022/03/15 01:51:41;;;;;;;;;;;;;;;16.62;56.92;100269.59;2091464;28;19927;-46
2022/03/15 01:52:42;;;;;;;;;;;;;;;16.62;56.69;100255.13;2093653;28;19920;-46
2022/03/15 01:53:43;;;;;;;;;;;;;;;16.63;56.59;100254.13;2088362;28;20799;-46
2022/03/15 01:54:43;;;;;;;;;;;;;;;16.63;56.77;100254.97;2091705;28;19909;-47
2022/03/15 01:55:45;;;;;;;;;;;;;;;16.63;56.63;100260.44;2090253;28;19927;-47
2022/03/15 01:56:45;;;;;;;;;;;;;;;16.62;57.03;100250.53;2089062;28;20002;-45
2022/03/15 01:57:45;;;;;;;;;;;;;;;16.61;57.04;100237.94;2077668;28;20274;-49
2022/03/15 01:58:46;;;;;;;;;;;;;;;16.62;57.03;100245.09;2081296;28;19951;-46
2022/03/15 01:59:46;;;;;;;;;;;;;;;16.62;56.73;100247.81;2092485;28;20282;-47
2022/03/15 02:00:48;;;;;;;;;;;;;;;16.63;56.78;100248.69;2092835;28;20344;-45
2022/03/15 02:01:48;;;;;;;;;;;;;;;16.63;56.69;100244.09;2091029;28;19919;-47
2022/03/15 02:02:48;;;;;;;;;;;;;;;16.62;56.80;100253.28;2091548;28;19920;-49
2022/03/15 02:03:48;;;;;;;;;;;;;;;16.63;56.71;100248.69;2088107;28;19921;-47
2022/03/15 02:04:49;;;;;;;;;;;;;;;16.63;57.03;100248.69;2086389;28;19952;-46
2022/03/15 02:05:49;;;;;;;;;;;;;;;16.63;56.77;100254.13;2092618;28;20238;-47
2022/03/15 02:06:59;;;;;;;;;;;;;;;16.63;56.86;100259.56;2087205;28;19909;-49
2022/03/15 02:08:11;;;;;;;;;;;;;;;16.63;56.85;100260.44;2092093;28;19920;-47
2022/03/15 02:09:13;;;;;;;;;;;;;;;16.64;56.60;100256.72;2088074;28;19947;-47
2022/03/15 02:10:13;;;;;;;;;;;;;;;16.64;56.92;100262.16;2082879;28;19993;-45
2022/03/15 02:11:14;;;;;;;;;;;;;;;16.65;56.83;100257.59;2072298;28;19920;-47
2022/03/15 02:12:14;;;;;;;;;;;;;;;16.65;56.63;100261.16;2081287;28;19917;-46
2022/03/15 02:13:15;;;;;;;;;;;;;;;16.65;56.66;100260.31;2093504;28;20234;-48
2022/03/15 02:14:15;;;;;;;;;;;;;;;16.67;56.80;100272.78;2091678;28;20588;-45
2022/03/15 02:15:15;;;;;;;;;;;;;;;16.65;56.74;100250.28;2087618;28;19959;-45
2022/03/15 02:16:16;;;;;;;;;;;;;;;16.66;56.74;100254.75;2090925;28;20467;-46
2022/03/15 02:17:16;;;;;;;;;;;;;;;16.67;56.85;100261.91;2089021;28;20145;-46
2022/03/15 02:18:18;;;;;;;;;;;;;;;16.68;56.56;100271.81;2091175;28;19920;-46
2022/03/15 02:19:19;;;;;;;;;;;;;;;16.68;56.73;100265.47;2090746;28;19921;-47
2022/03/15 02:20:19;;;;;;;;;;;;;;;16.68;56.79;100258.22;2092147;28;20433;-46
2022/03/15 02:21:19;;;;;;;;;;;;;;;16.68;56.70;100250.03;2091099;28;19966;-47
2022/03/15 02:22:20;;;;;;;;;;;;;;;16.67;56.70;100245.56;2090238;28;19920;-45
2022/03/15 02:23:20;;;;;;;;;;;;;;;16.67;56.75;100251.00;2091208;28;20121;-46
2022/03/15 02:24:20;;;;;;;;;;;;;;;16.68;56.67;100247.31;2091745;28;20029;-47
2022/03/15 02:25:21;;;;;;;;;;;;;;;16.69;56.61;100231.84;2095434;28;19919;-47
2022/03/15 02:26:21;;;;;;;;;;;;;;;16.68;56.84;100244.59;2092365;28;20450;-48
2022/03/15 02:27:23;;;;;;;;;;;;;;;16.67;56.74;100234.69;2090921;28;19920;-47
2022/03/15 02:28:24;;;;;;;;;;;;;;;16.66;56.60;100241.13;2091032;28;20337;-46
2022/03/15 02:29:24;;;;;;;;;;;;;;;16.68;56.87;100240.97;2092657;28;19924;-47
2022/03/15 02:30:24;;;;;;;;;;;;;;;16.67;56.68;100245.56;2097643;28;19920;-46
2022/03/15 02:31:25;;;;;;;;;;;;;;;16.68;56.67;100241.88;2090727;28;20019;-46
2022/03/15 02:32:25;;;;;;;;;;;;;;;16.67;56.79;100240.13;2085738;28;19958;-47
2022/03/15 02:33:25;;;;;;;;;;;;;;;16.66;56.69;100241.13;2085183;28;19924;-47
2022/03/15 02:34:26;;;;;;;;;;;;;;;16.67;56.65;100267.34;2090419;28;19939;-47
2022/03/15 02:35:26;;;;;;;;;;;;;;;16.68;56.70;100254.59;2092634;28;20447;-47
2022/03/15 02:36:26;;;;;;;;;;;;;;;16.66;56.88;100246.59;2092614;28;20348;-46
2022/03/15 02:37:27;;;;;;;;;;;;;;;16.65;56.81;100242.13;2094415;28;20903;-46
2022/03/15 02:38:27;;;;;;;;;;;;;;;16.67;56.81;100245.56;2096752;28;20409;-47
2022/03/15 02:39:28;;;;;;;;;;;;;;;16.65;56.73;100242.13;2093428;28;19923;-45
2022/03/15 02:40:28;;;;;;;;;;;;;;;16.66;56.81;100249.31;2088380;28;20747;-46
2022/03/15 02:41:28;;;;;;;;;;;;;;;16.64;56.74;100240.41;2086461;28;19940;-46
2022/03/15 02:42:29;;;;;;;;;;;;;;;16.66;56.65;100243.00;2086179;28;20157;-45
2022/03/15 02:43:30;;;;;;;;;;;;;;;16.65;56.70;100242.13;2090868;28;19931;-45
2022/03/15 02:44:30;;;;;;;;;;;;;;;16.64;56.75;100240.41;2088889;28;20243;-47
2022/03/15 02:45:30;;;;;;;;;;;;;;;16.64;56.94;100240.41;2090118;28;19924;-46
2022/03/15 02:46:31;;;;;;;;;;;;;;;16.65;56.68;100263.03;2085780;28;20195;-46
2022/03/15 02:47:32;;;;;;;;;;;;;;;16.64;56.67;100248.56;2085663;28;19955;-45
2022/03/15 02:48:32;;;;;;;;;;;;;;;16.64;56.73;100237.69;2085888;28;19971;-46
2022/03/15 02:49:32;;;;;;;;;;;;;;;16.63;56.91;100249.53;2090681;28;20439;-47
2022/03/15 02:50:33;;;;;;;;;;;;;;;16.63;56.62;100254.97;2092318;28;19959;-46
2022/03/15 02:51:33;;;;;;;;;;;;;;;16.64;56.84;100234.94;2090889;28;21695;-46
2022/03/15 02:52:34;;;;;;;;;;;;;;;16.65;56.61;100252.16;2088331;28;20428;-47
2022/03/15 02:53:35;;;;;;;;;;;;;;;16.65;56.90;100246.69;2092996;28;20506;-45
2022/03/15 02:54:41;;;;;;;;;;;;;;;16.64;57.06;100251.28;2093018;28;19931;-46
2022/03/15 02:55:41;;;;;;;;;;;;;;;16.66;56.58;100252.03;2080077;28;20007;-46
2022/03/15 02:56:43;;;;;;;;;;;;;;;16.65;56.68;100250.28;2077968;28;19908;-47
2022/03/15 02:57:44;;;;;;;;;;;;;;;16.67;56.63;100251.00;2089499;28;19937;-45
2022/03/15 02:58:44;;;;;;;;;;;;;;;16.65;56.91;100253.00;2077735;28;19970;-46
2022/03/15 02:59:45;;;;;;;;;;;;;;;16.68;56.89;100240.97;2082048;28;19920;-45
2022/03/15 03:00:45;;;;;;;;;;;;;;;16.67;56.80;100251.00;2084864;28;20027;-46
2022/03/15 03:01:46;;;;;;;;;;;;;;;16.68;56.65;100252.75;2088233;28;19932;-46
2022/03/15 03:02:46;;;;;;;;;;;;;;;16.68;56.84;100255.50;2088719;28;19920;-45
2022/03/15 03:03:47;;;;;;;;;;;;;;;16.68;56.91;100257.31;2093832;28;19924;-46
2022/03/15 03:04:48;;;;;;;;;;;;;;;16.69;57.00;100250.91;2081819;28;21257;-47
2022/03/15 03:05:48;;;;;;;;;;;;;;;16.68;56.54;100252.75;2081213;28;20302;-46
2022/03/15 03:06:49;;;;;;;;;;;;;;;16.70;56.69;100252.63;2092276;28;19919;-45
2022/03/15 03:07:50;;;;;;;;;;;;;;;16.70;56.82;100256.19;2096548;28;19926;-45
2022/03/15 03:08:51;;;;;;;;;;;;;;;16.70;56.61;100250.75;2094446;28;19912;-47
2022/03/15 03:09:51;;;;;;;;;;;;;;;16.71;56.78;100246.19;2089199;28;20548;-47
2022/03/15 03:10:52;;;;;;;;;;;;;;;16.71;56.89;100251.63;2092563;28;19915;-46
2022/03/15 03:11:53;;;;;;;;;;;;;;;16.72;56.79;100250.63;2093812;28;19927;-46
2022/03/15 03:12:54;;;;;;;;;;;;;;;16.72;56.73;100253.34;2091396;28;20375;-46
2022/03/15 03:13:57;;;;;;;;;;;;;;;16.71;56.58;100241.59;2095646;28;19980;-47
2022/03/15 03:14:57;;;;;;;;;;;;;;;16.71;56.55;100249.78;2079020;28;19992;-46
2022/03/15 03:15:59;;;;;;;;;;;;;;;16.71;56.87;100240.75;2081812;28;19924;-45
2022/03/15 03:16:59;;;;;;;;;;;;;;;16.71;56.64;100233.44;2094735;28;19944;-46
2022/03/15 03:18:00;;;;;;;;;;;;;;;16.70;56.50;100245.31;2092578;28;19951;-45
2022/03/15 03:19:00;;;;;;;;;;;;;;;16.71;56.76;100236.16;2090625;28;20282;-46
2022/03/15 03:20:01;;;;;;;;;;;;;;;16.71;56.62;100232.59;2087137;28;20301;-46
2022/03/15 03:21:04;;;;;;;;;;;;;;;16.71;56.57;100225.28;2088014;28;19934;-45
2022/03/15 03:22:05;;;;;;;;;;;;;;;16.70;56.68;100233.56;2085365;28;19920;-47
2022/03/15 03:23:05;;;;;;;;;;;;;;;16.70;56.78;100219.94;2088742;28;19958;-45
2022/03/15 03:24:06;;;;;;;;;;;;;;;16.69;56.73;100212.78;2090775;28;20215;-47
2022/03/15 03:25:07;;;;;;;;;;;;;;;16.69;56.77;100218.22;2094770;28;19920;-46
2022/03/15 03:26:08;;;;;;;;;;;;;;;16.70;56.82;100211.78;2086620;28;20357;-44
2022/03/15 03:27:13;;;;;;;;;;;;;;;16.70;56.44;100223.53;2088651;28;19995;-47
2022/03/15 03:28:14;;;;;;;;;;;;;;;16.70;56.67;100226.25;2091205;28;19927;-46
2022/03/15 03:29:15;;;;;;;;;;;;;;;16.69;56.60;100219.09;2093360;28;20464;-45
2022/03/15 03:30:15;;;;;;;;;;;;;;;16.70;56.73;100223.53;2088351;28;19920;-45
2022/03/15 03:31:16;;;;;;;;;;;;;;;16.68;56.81;100214.66;2099315;28;19977;-45
2022/03/15 03:32:17;;;;;;;;;;;;;;;16.70;56.72;100234.41;2092450;28;19927;-47
2022/03/15 03:33:21;;;;;;;;;;;;;;;16.69;56.64;100235.44;2095476;28;19919;-45
2022/03/15 03:34:22;;;;;;;;;;;;;;;16.68;56.70;100239.16;2088514;28;19931;-46
2022/03/15 03:35:22;;;;;;;;;;;;;;;16.69;56.68;100243.59;2092272;28;19943;-47
2022/03/15 03:36:24;;;;;;;;;;;;;;;16.69;56.62;100224.53;2090210;28;19920;-45
2022/03/15 03:37:25;;;;;;;;;;;;;;;16.69;56.62;100249.03;2093512;28;19912;-50
2022/03/15 03:38:25;;;;;;;;;;;;;;;16.69;56.67;100231.84;2088233;28;20602;-46
2022/03/15 03:39:25;;;;;;;;;;;;;;;16.68;56.63;100252.75;2097230;28;20249;-46
2022/03/15 03:40:26;;;;;;;;;;;;;;;16.69;56.68;100240.88;2087282;28;20011;-47
2022/03/15 03:41:26;;;;;;;;;;;;;;;16.68;56.52;100247.31;2089754;28;20462;-46
2022/03/15 03:42:26;;;;;;;;;;;;;;;16.68;56.78;100247.31;2093724;28;19924;-47
2022/03/15 03:43:28;;;;;;;;;;;;;;;16.70;56.70;100256.19;2087778;28;20003;-46
2022/03/15 03:44:28;;;;;;;;;;;;;;;16.68;56.70;100252.75;2096445;28;19928;-46
2022/03/15 03:45:29;;;;;;;;;;;;;;;16.69;56.60;100253.63;2087236;28;19912;-47
2022/03/15 03:46:31;;;;;;;;;;;;;;;16.69;56.61;100243.59;2091360;28;19919;-46
2022/03/15 03:47:31;;;;;;;;;;;;;;;16.69;56.78;100249.03;2091274;28;20028;-47
2022/03/15 03:48:32;;;;;;;;;;;;;;;16.68;56.84;100244.59;2082356;28;19913;-46
2022/03/15 03:49:32;;;;;;;;;;;;;;;16.69;56.82;100245.47;2083728;28;20361;-46
2022/03/15 03:50:34;;;;;;;;;;;;;;;16.68;56.66;100247.31;2084997;28;19939;-49
2022/03/15 03:51:34;;;;;;;;;;;;;;;16.68;56.80;100247.31;2088368;28;19924;-45
2022/03/15 03:52:35;;;;;;;;;;;;;;;16.69;56.64;100232.69;2095417;28;19959;-46
2022/03/15 03:53:35;;;;;;;;;;;;;;;16.68;56.64;100243.72;2083089;28;20003;-47
2022/03/15 03:54:36;;;;;;;;;;;;;;;16.68;56.70;100252.75;2085846;28;20626;-46
2022/03/15 03:55:36;;;;;;;;;;;;;;;16.69;56.63;100237.28;2091885;28;19974;-45
2022/03/15 03:56:36;;;;;;;;;;;;;;;16.69;56.83;100235.44;2096735;28;20710;-48
2022/03/15 03:57:37;;;;;;;;;;;;;;;16.68;56.65;100231.00;2097718;28;19913;-46
2022/03/15 03:58:38;;;;;;;;;;;;;;;16.70;56.51;100239.84;2089011;28;20261;-50
2022/03/15 03:59:38;;;;;;;;;;;;;;;16.70;56.73;100236.28;2093597;28;19912;-46
2022/03/15 04:00:38;;;;;;;;;;;;;;;16.69;56.79;100238.16;2087153;28;19924;-47
2022/03/15 04:01:39;;;;;;;;;;;;;;;16.70;56.73;100234.41;2091199;28;19919;-46
2022/03/15 04:02:40;;;;;;;;;;;;;;;16.69;56.61;100221.81;2088801;28;20018;-46
2022/03/15 04:03:41;;;;;;;;;;;;;;;16.71;56.66;100227.13;2087123;28;20263;-46
2022/03/15 04:04:41;;;;;;;;;;;;;;;16.71;56.78;100236.16;2097701;28;20308;-46
2022/03/15 04:05:42;;;;;;;;;;;;;;;16.72;56.61;100220.69;2085294;28;19920;-46
2022/03/15 04:06:43;;;;;;;;;;;;;;;16.72;56.65;100237.88;2086427;28;20299;-47
2022/03/15 04:07:43;;;;;;;;;;;;;;;16.72;56.76;100243.31;2088411;28;19921;-47
2022/03/15 04:08:44;;;;;;;;;;;;;;;16.72;56.67;100243.31;2085961;28;20712;-46
2022/03/15 04:09:44;;;;;;;;;;;;;;;16.72;56.83;100237.88;2094250;28;20270;-47
2022/03/15 04:10:46;;;;;;;;;;;;;;;16.72;56.69;100246.03;2092449;28;19920;-46
2022/03/15 04:11:46;;;;;;;;;;;;;;;16.72;56.66;100243.31;2092754;28;19959;-47
2022/03/15 04:12:47;;;;;;;;;;;;;;;16.74;56.61;100253.22;2091948;28;20703;-53
2022/03/15 04:13:47;;;;;;;;;;;;;;;16.74;56.56;100250.50;2091582;28;20541;-46
2022/03/15 04:14:48;;;;;;;;;;;;;;;16.73;56.54;100241.44;2098919;28;20285;-46
2022/03/15 04:15:51;;;;;;;;;;;;;;;16.72;56.61;100237.88;2096417;28;19920;-48
2022/03/15 04:16:52;;;;;;;;;;;;;;;16.71;56.80;100249.78;2088784;28;19999;-47
2022/03/15 04:17:52;;;;;;;;;;;;;;;16.72;56.62;100243.31;2092067;28;20179;-46
2022/03/15 04:18:53;;;;;;;;;;;;;;;16.71;56.73;100257.94;2086339;28;19939;-46
2022/03/15 04:19:53;;;;;;;;;;;;;;;16.71;56.44;100247.06;2095805;28;19917;-46
2022/03/15 04:20:53;;;;;;;;;;;;;;;16.72;56.55;100250.63;2092978;28;19945;-46
2022/03/15 04:21:54;;;;;;;;;;;;;;;16.71;56.57;100247.06;2092920;28;19920;-45
2022/03/15 04:22:54;;;;;;;;;;;;;;;16.71;56.75;100227.13;2086377;28;19927;-48
2022/03/15 04:23:55;;;;;;;;;;;;;;;16.70;56.56;100239.84;2091895;28;19927;-46
2022/03/15 04:24:55;;;;;;;;;;;;;;;16.72;56.66;100239.75;2089979;28;19928;-46
2022/03/15 04:25:56;;;;;;;;;;;;;;;16.72;56.70;100253.34;2083460;28;19955;-46
2022/03/15 04:26:57;;;;;;;;;;;;;;;16.71;56.62;100247.06;2081786;28;20614;-46
2022/03/15 04:28:00;;;;;;;;;;;;;;;16.72;56.70;100243.31;2092625;28;20160;-46
2022/03/15 04:29:00;;;;;;;;;;;;;;;16.70;56.61;100245.31;2089879;28;20281;-46
2022/03/15 04:30:01;;;;;;;;;;;;;;;16.70;56.51;100245.31;2089326;28;19921;-46
2022/03/15 04:31:01;;;;;;;;;;;;;;;16.71;56.68;100241.59;2079625;28;20602;-46
2022/03/15 04:32:02;;;;;;;;;;;;;;;16.70;56.71;100239.84;2083376;28;20100;-47
2022/03/15 04:33:02;;;;;;;;;;;;;;;16.69;56.80;100237.28;2086395;28;19944;-46
2022/03/15 04:34:02;;;;;;;;;;;;;;;16.70;56.64;100233.56;2089831;28;19977;-47
2022/03/15 04:35:03;;;;;;;;;;;;;;;16.69;56.56;100259.06;2096864;28;19928;-47
2022/03/15 04:36:04;;;;;;;;;;;;;;;16.69;56.69;100253.63;2088426;28;20302;-46
2022/03/15 04:37:04;;;;;;;;;;;;;;;16.68;56.78;100241.88;2093589;28;19958;-46
2022/03/15 04:38:05;;;;;;;;;;;;;;;16.68;56.71;100244.59;2088346;28;19967;-46
2022/03/15 04:39:05;;;;;;;;;;;;;;;16.68;56.60;100247.31;2094733;28;19920;-50
2022/03/15 04:40:07;;;;;;;;;;;;;;;16.70;56.53;100248.03;2086664;28;19951;-52
2022/03/15 04:41:07;;;;;;;;;;;;;;;16.69;56.68;100238.16;2084544;28;19964;-47
2022/03/15 04:42:08;;;;;;;;;;;;;;;16.69;56.64;100238.16;2085150;28;19960;-46
2022/03/15 04:43:08;;;;;;;;;;;;;;;16.70;56.76;100245.31;2093362;28;20741;-47
2022/03/15 04:44:08;;;;;;;;;;;;;;;16.69;56.77;100238.16;2093093;28;19981;-47
2022/03/15 04:45:09;;;;;;;;;;;;;;;16.69;56.64;100237.28;2092072;28;20011;-46
2022/03/15 04:46:11;;;;;;;;;;;;;;;16.67;56.68;100237.41;2081070;28;19917;-46
2022/03/15 04:47:12;;;;;;;;;;;;;;;16.68;56.77;100241.88;2078606;28;19913;-47
2022/03/15 04:48:13;;;;;;;;;;;;;;;16.69;56.68;100243.59;2087567;28;20823;-49
2022/03/15 04:49:13;;;;;;;;;;;;;;;16.69;56.83;100245.47;2093600;28;20503;-47
2022/03/15 04:50:13;;;;;;;;;;;;;;;16.68;56.71;100236.44;2090828;28;20254;-49
2022/03/15 04:51:14;;;;;;;;;;;;;;;16.69;56.75;100246.31;2089304;28;20585;-47
2022/03/15 04:52:14;;;;;;;;;;;;;;;16.70;56.87;100239.84;2084545;28;19917;-47
2022/03/15 04:53:15;;;;;;;;;;;;;;;16.71;56.69;100243.47;2088366;28;20579;-47
2022/03/15 04:54:15;;;;;;;;;;;;;;;16.71;57.00;100247.06;2092443;28;19920;-47
2022/03/15 04:55:15;;;;;;;;;;;;;;;16.70;57.03;100239.00;2088727;28;19921;-47
2022/03/15 04:56:16;;;;;;;;;;;;;;;16.70;56.88;100242.59;2090415;28;20166;-47
2022/03/15 04:57:16;;;;;;;;;;;;;;;16.71;56.71;100240.75;2090637;28;19924;-49
2022/03/15 04:58:16;;;;;;;;;;;;;;;16.71;56.75;100225.28;2080034;28;19939;-46
2022/03/15 04:59:16;;;;;;;;;;;;;;;16.69;56.69;100219.09;2089132;28;19912;-46
2022/03/15 05:00:18;;;;;;;;;;;;;;;16.71;56.83;100236.16;2084277;28;19967;-47
2022/03/15 05:01:18;;;;;;;;;;;;;;;16.72;56.67;100226.13;2092103;28;19919;-48
2022/03/15 05:02:19;;;;;;;;;;;;;;;16.72;56.43;100237.88;2091179;28;19920;-46
2022/03/15 05:03:19;;;;;;;;;;;;;;;16.74;56.61;100247.78;2090859;28;19965;-46
2022/03/15 05:04:19;;;;;;;;;;;;;;;16.74;56.52;100248.66;2077547;28;19927;-46
2022/03/15 05:05:20;;;;;;;;;;;;;;;16.74;56.69;100240.47;2076364;28;20349;-47
2022/03/15 05:06:20;;;;;;;;;;;;;;;16.74;56.64;100250.50;2093377;28;19920;-46
2022/03/15 05:07:20;;;;;;;;;;;;;;;16.75;56.44;100246.78;2091350;28;20265;-47
2022/03/15 05:08:21;;;;;;;;;;;;;;;16.74;56.67;100245.94;2088838;28;19982;-47
2022/03/15 05:09:21;;;;;;;;;;;;;;;16.74;56.43;100245.06;2089769;28;19916;-47
2022/03/15 05:11:45;;;;;;;;;;;;;;;16.75;56.34;100246.78;2085191;28;19931;-46
2022/03/15 05:12:45;;;;;;;;;;;;;;;16.75;56.69;100230.44;2090717;28;20080;-48
2022/03/15 05:13:47;;;;;;;;;;;;;;;16.75;56.59;100241.34;2094871;28;19920;-47